createdAt,value
2019-05-01T00:02:10.014Z,12.58
2019-05-01T00:04:47.194Z,12.18
2019-05-01T00:07:27.529Z,12.26
2019-05-01T00:09:56.889Z,12.23
2019-05-01T00:12:26.434Z,11.57
2019-05-01T00:14:55.829Z,11.51
2019-05-01T00:17:27.774Z,11.77
2019-05-01T00:19:56.624Z,12.03
2019-05-01T00:22:26.105Z,12.24
2019-05-01T00:24:55.478Z,11.33
2019-05-01T00:27:24.958Z,11.84
2019-05-01T00:29:54.355Z,12.31
2019-05-01T00:32:23.727Z,11.71
2019-05-01T00:34:53.095Z,11.26
2019-05-01T00:37:22.475Z,12.01
2019-05-01T00:39:51.912Z,11.58
2019-05-01T00:42:21.321Z,11.49
2019-05-01T00:44:50.700Z,11.13
2019-05-01T00:47:20.057Z,11.24
2019-05-01T00:49:49.428Z,11.84
2019-05-01T00:52:18.815Z,12.05
2019-05-01T00:54:49.911Z,11.27
2019-05-01T00:57:27.251Z,11.60
2019-05-01T01:00:10.195Z,11.82
2019-05-01T01:02:42.224Z,11.25
2019-05-01T01:05:11.634Z,11.04
2019-05-01T01:07:41.114Z,11.10
2019-05-01T01:10:10.605Z,11.83
2019-05-01T01:12:40.069Z,12.09
2019-05-01T01:15:09.415Z,12.25
2019-05-01T01:17:38.825Z,12.28
2019-05-01T01:20:08.248Z,12.14
2019-05-01T01:22:37.684Z,11.65
2019-05-01T01:25:07.573Z,11.89
2019-05-01T01:27:37.109Z,12.00
2019-05-01T01:30:07.569Z,11.64
2019-05-01T01:32:37.010Z,11.28
2019-05-01T01:35:06.756Z,11.25
2019-05-01T01:37:36.095Z,11.47
2019-05-01T01:40:06.346Z,11.18
2019-05-01T01:42:36.453Z,11.26
2019-05-01T01:45:30.739Z,10.96
2019-05-01T01:48:16.619Z,10.60
2019-05-01T01:50:46.547Z,10.99
2019-05-01T01:53:18.318Z,11.31
2019-05-01T01:55:47.919Z,11.37
2019-05-01T01:58:17.706Z,10.84
2019-05-01T02:01:09.196Z,10.68
2019-05-01T02:03:36.663Z,10.66
2019-05-01T02:06:06.090Z,11.23
2019-05-01T02:08:35.517Z,11.18
2019-05-01T02:11:04.934Z,11.32
2019-05-01T02:13:34.349Z,11.35
2019-05-01T02:16:03.710Z,11.53
2019-05-01T02:18:33.125Z,11.63
2019-05-01T02:21:02.584Z,11.70
2019-05-01T02:23:31.936Z,12.09
2019-05-01T02:26:01.439Z,11.87
2019-05-01T02:28:41.681Z,11.73
2019-05-01T02:31:27.851Z,11.15
2019-05-01T02:33:57.285Z,10.83
2019-05-01T02:36:28.011Z,11.06
2019-05-01T02:38:57.882Z,11.38
2019-05-01T02:41:32.482Z,11.62
2019-05-01T02:44:08.173Z,11.58
2019-05-01T02:46:38.070Z,11.60
2019-05-01T02:49:11.085Z,11.43
2019-05-01T02:51:41.621Z,11.13
2019-05-01T02:54:12.280Z,11.43
2019-05-01T02:56:54.585Z,11.44
2019-05-01T02:59:25.245Z,11.55
2019-05-01T03:01:55.586Z,11.56
2019-05-01T03:04:25.257Z,11.06
2019-05-01T03:06:54.927Z,10.65
2019-05-01T03:09:24.703Z,11.03
2019-05-01T03:11:55.274Z,10.91
2019-05-01T03:14:26.920Z,10.98
2019-05-01T03:16:58.723Z,10.66
2019-05-01T03:19:46.380Z,10.85
2019-05-01T03:22:29.188Z,10.91
2019-05-01T03:24:59.167Z,10.85
2019-05-01T03:27:28.848Z,11.27
2019-05-01T03:29:58.408Z,11.46
2019-05-01T03:32:27.996Z,11.20
2019-05-01T03:34:57.557Z,10.72
2019-05-01T03:37:27.119Z,10.59
2019-05-01T03:39:56.681Z,10.36
2019-05-01T03:42:26.262Z,10.41
2019-05-01T03:44:55.830Z,10.98
2019-05-01T03:47:25.409Z,11.20
2019-05-01T03:49:54.971Z,11.30
2019-05-01T03:52:24.542Z,11.25
2019-05-01T03:54:54.226Z,11.28
2019-05-01T03:57:24.202Z,10.96
2019-05-01T03:59:53.891Z,10.23
2019-05-01T04:02:44.009Z,10.90
2019-05-01T04:05:13.570Z,11.22
2019-05-01T04:07:43.252Z,11.27
2019-05-01T04:10:12.939Z,11.28
2019-05-01T04:12:43.023Z,11.30
2019-05-01T04:15:12.887Z,11.30
2019-05-01T04:17:50.280Z,11.32
2019-05-01T04:20:19.914Z,11.29
2019-05-01T04:22:49.775Z,11.14
2019-05-01T04:25:19.377Z,10.94
2019-05-01T04:27:50.737Z,10.51
2019-05-01T04:30:39.401Z,10.69
2019-05-01T04:33:11.681Z,10.96
2019-05-01T04:36:12.750Z,11.06
2019-05-01T04:38:42.676Z,11.23
2019-05-01T04:41:12.454Z,11.49
2019-05-01T04:43:42.009Z,11.56
2019-05-01T04:46:11.586Z,11.75
2019-05-01T04:48:41.200Z,12.12
2019-05-01T04:51:10.715Z,12.09
2019-05-01T04:53:40.400Z,11.90
2019-05-01T04:56:09.987Z,12.05
2019-05-01T04:58:39.589Z,11.80
2019-05-01T05:01:09.361Z,11.73
2019-05-01T05:03:38.927Z,11.69
2019-05-01T05:06:08.982Z,11.55
2019-05-01T05:08:38.535Z,11.52
2019-05-01T05:11:13.399Z,11.57
2019-05-01T05:14:02.143Z,11.62
2019-05-01T05:16:46.564Z,11.59
2019-05-01T05:19:16.256Z,10.98
2019-05-01T05:21:45.820Z,11.29
2019-05-01T05:24:15.419Z,10.69
2019-05-01T05:26:45.110Z,10.42
2019-05-01T05:29:15.702Z,10.30
2019-05-01T05:31:46.151Z,10.51
2019-05-01T05:34:18.235Z,10.56
2019-05-01T05:36:49.920Z,10.07
2019-05-01T05:39:28.686Z,9.96
2019-05-01T05:41:58.752Z,10.43
2019-05-01T05:44:28.622Z,11.04
2019-05-01T05:46:58.196Z,10.69
2019-05-01T05:49:27.986Z,10.38
2019-05-01T05:52:06.662Z,9.93
2019-05-01T05:54:43.122Z,9.83
2019-05-01T05:57:20.001Z,9.77
2019-05-01T06:00:11.220Z,9.81
2019-05-01T06:02:52.788Z,9.87
2019-05-01T06:05:43.575Z,10.07
2019-05-01T06:08:19.549Z,10.38
2019-05-01T06:11:09.200Z,10.19
2019-05-01T06:13:58.917Z,9.95
2019-05-01T06:16:36.072Z,9.95
2019-05-01T06:19:22.849Z,10.43
2019-05-01T06:22:11.606Z,10.69
2019-05-01T06:24:44.703Z,10.67
2019-05-01T06:27:15.087Z,10.65
2019-05-01T06:29:45.039Z,10.59
2019-05-01T06:32:14.639Z,11.04
2019-05-01T06:34:44.529Z,10.44
2019-05-01T06:37:14.088Z,10.95
2019-05-01T06:39:48.145Z,11.13
2019-05-01T06:42:16.916Z,10.76
2019-05-01T06:44:51.960Z,10.96
2019-05-01T06:47:38.135Z,11.04
2019-05-01T06:50:14.985Z,11.25
2019-05-01T06:52:44.697Z,12.06
2019-05-01T06:55:14.476Z,12.22
2019-05-01T06:57:45.660Z,11.84
2019-05-01T07:00:17.420Z,11.75
2019-05-01T07:02:48.129Z,12.45
2019-05-01T07:05:17.739Z,12.26
2019-05-01T07:07:48.250Z,11.78
2019-05-01T07:10:29.798Z,11.79
2019-05-01T07:12:50.152Z,11.93
2019-05-01T07:15:21.843Z,12.35
2019-05-01T07:17:51.275Z,13.14
2019-05-01T07:20:47.419Z,13.11
2019-05-01T07:23:18.701Z,12.66
2019-05-01T07:25:48.544Z,12.90
2019-05-01T07:28:18.218Z,13.08
2019-05-01T07:30:55.113Z,13.67
2019-05-01T07:33:25.837Z,13.55
2019-05-01T07:35:55.566Z,13.29
2019-05-01T07:38:25.099Z,13.43
2019-05-01T07:40:58.817Z,13.63
2019-05-01T07:43:33.341Z,13.56
2019-05-01T07:46:18.449Z,13.54
2019-05-01T07:48:46.729Z,14.11
2019-05-01T07:51:16.405Z,13.99
2019-05-01T07:53:46.419Z,13.96
2019-05-01T07:56:17.228Z,14.04
2019-05-01T07:58:47.477Z,13.95
2019-05-01T08:01:54.526Z,14.06
2019-05-01T08:04:35.791Z,14.09
2019-05-01T08:06:57.073Z,14.18
2019-05-01T08:09:26.672Z,14.24
2019-05-01T08:11:56.307Z,14.37
2019-05-01T08:14:25.870Z,14.41
2019-05-01T08:16:55.516Z,14.55
2019-05-01T08:19:34.687Z,15.01
2019-05-01T08:22:14.324Z,14.83
2019-05-01T08:24:44.076Z,14.79
2019-05-01T08:27:58.154Z,15.25
2019-05-01T08:30:38.695Z,15.13
2019-05-01T08:33:33.339Z,15.10
2019-05-01T08:36:06.787Z,15.49
2019-05-01T08:38:35.443Z,15.40
2019-05-01T08:41:05.117Z,15.50
2019-05-01T08:43:36.032Z,15.51
2019-05-01T08:46:24.938Z,15.83
2019-05-01T08:49:22.944Z,16.00
2019-05-01T08:51:52.630Z,16.30
2019-05-01T08:54:22.281Z,16.58
2019-05-01T08:56:52.936Z,16.06
2019-05-01T08:59:25.649Z,16.16
2019-05-01T09:02:08.419Z,16.25
2019-05-01T09:04:30.317Z,16.57
2019-05-01T09:06:57.769Z,16.35
2019-05-01T09:09:27.507Z,16.19
2019-05-01T09:11:57.201Z,16.12
2019-05-01T09:14:29.935Z,16.15
2019-05-01T09:16:57.642Z,16.26
2019-05-01T09:19:27.072Z,16.28
2019-05-01T09:21:56.432Z,16.34
2019-05-01T09:24:27.989Z,16.30
2019-05-01T09:27:29.482Z,16.51
2019-05-01T09:29:59.991Z,17.63
2019-05-01T09:32:29.332Z,18.19
2019-05-01T09:34:58.782Z,17.94
2019-05-01T09:37:28.563Z,18.47
2019-05-01T09:39:58.027Z,19.09
2019-05-01T09:42:27.454Z,19.21
2019-05-01T09:44:56.857Z,18.56
2019-05-01T09:47:26.850Z,18.71
2019-05-01T09:49:56.320Z,17.87
2019-05-01T09:53:03.247Z,17.58
2019-05-01T09:55:39.889Z,17.43
2019-05-01T09:58:09.247Z,17.93
2019-05-01T10:00:38.763Z,18.64
2019-05-01T10:03:08.209Z,20.11
2019-05-01T10:05:37.953Z,20.83
2019-05-01T10:08:08.612Z,20.32
2019-05-01T10:10:38.043Z,21.00
2019-05-01T10:13:07.804Z,20.03
2019-05-01T10:15:37.174Z,19.67
2019-05-01T10:18:06.601Z,19.56
2019-05-01T10:20:36.000Z,19.50
2019-05-01T10:23:07.762Z,19.42
2019-05-01T10:25:42.912Z,19.13
2019-05-01T10:28:17.790Z,19.17
2019-05-01T10:30:58.090Z,19.21
2019-05-01T10:33:28.967Z,19.29
2019-05-01T10:36:18.810Z,19.44
2019-05-01T10:38:48.070Z,19.98
2019-05-01T10:41:17.433Z,20.60
2019-05-01T10:43:46.904Z,20.86
2019-05-01T10:46:16.321Z,20.39
2019-05-01T10:48:45.694Z,20.50
2019-05-01T10:51:15.063Z,20.48
2019-05-01T10:53:44.425Z,20.24
2019-05-01T10:56:13.858Z,20.02
2019-05-01T10:58:43.308Z,19.71
2019-05-01T11:01:21.343Z,19.55
2019-05-01T11:03:50.701Z,21.60
2019-05-01T11:06:20.154Z,20.27
2019-05-01T11:08:49.523Z,20.20
2019-05-01T11:11:18.867Z,20.20
2019-05-01T11:13:49.322Z,19.80
2019-05-01T11:16:18.674Z,19.37
2019-05-01T11:18:48.042Z,19.21
2019-05-01T11:21:17.398Z,18.99
2019-05-01T11:23:46.790Z,18.91
2019-05-01T11:26:16.138Z,18.92
2019-05-01T11:28:45.507Z,18.93
2019-05-01T11:31:17.238Z,18.83
2019-05-01T11:34:20.457Z,18.81
2019-05-01T11:37:07.614Z,18.79
2019-05-01T11:39:49.571Z,18.77
2019-05-01T11:42:19.008Z,19.23
2019-05-01T11:44:48.363Z,19.38
2019-05-01T11:47:17.692Z,19.48
2019-05-01T11:49:47.034Z,19.49
2019-05-01T11:52:16.442Z,19.47
2019-05-01T11:54:45.797Z,19.46
2019-05-01T11:57:15.159Z,19.43
2019-05-01T11:59:44.536Z,19.42
2019-05-01T12:02:13.932Z,19.37
2019-05-01T12:04:43.294Z,19.43
2019-05-01T12:07:12.656Z,19.34
2019-05-01T12:09:42.098Z,19.35
2019-05-01T12:12:13.895Z,19.42
2019-05-01T12:14:43.258Z,19.44
2019-05-01T12:17:26.939Z,19.44
2019-05-01T12:19:56.324Z,19.91
2019-05-01T12:22:25.689Z,19.84
2019-05-01T12:24:55.056Z,19.65
2019-05-01T12:27:24.398Z,19.84
2019-05-01T12:29:53.813Z,20.19
2019-05-01T12:32:23.231Z,20.16
2019-05-01T12:34:52.576Z,20.25
2019-05-01T12:37:31.577Z,20.26
2019-05-01T12:40:00.933Z,20.21
2019-05-01T12:42:31.133Z,20.08
2019-05-01T12:45:00.529Z,20.23
2019-05-01T12:47:39.854Z,20.24
2019-05-01T12:50:09.732Z,20.22
2019-05-01T12:53:07.077Z,20.11
2019-05-01T12:55:55.549Z,20.10
2019-05-01T12:58:24.886Z,20.02
2019-05-01T13:00:55.006Z,20.06
2019-05-01T13:03:24.483Z,19.94
2019-05-01T13:05:53.838Z,19.92
2019-05-01T13:08:23.202Z,20.09
2019-05-01T13:10:52.702Z,20.15
2019-05-01T13:13:22.245Z,20.00
2019-05-01T13:15:51.591Z,19.97
2019-05-01T13:18:21.021Z,20.08
2019-05-01T13:20:50.360Z,20.12
2019-05-01T13:23:19.721Z,20.12
2019-05-01T13:25:50.262Z,20.16
2019-05-01T13:28:35.859Z,20.17
2019-05-01T13:31:33.647Z,20.15
2019-05-01T13:34:03.068Z,20.20
2019-05-01T13:36:32.414Z,20.31
2019-05-01T13:39:01.795Z,20.27
2019-05-01T13:41:31.212Z,20.20
2019-05-01T13:44:00.563Z,20.25
2019-05-01T13:46:30.018Z,20.32
2019-05-01T13:48:59.522Z,20.50
2019-05-01T13:51:28.934Z,20.59
2019-05-01T13:53:58.301Z,20.67
2019-05-01T13:56:27.635Z,20.80
2019-05-01T13:58:57.056Z,20.50
2019-05-01T14:01:26.791Z,20.55
2019-05-01T14:03:56.140Z,20.51
2019-05-01T14:06:25.555Z,20.59
2019-05-01T14:08:54.922Z,20.53
2019-05-01T14:11:24.274Z,20.47
2019-05-01T14:13:53.669Z,20.66
2019-05-01T14:16:23.115Z,20.78
2019-05-01T14:18:52.568Z,20.97
2019-05-01T14:21:33.157Z,21.07
2019-05-01T14:24:20.560Z,21.29
2019-05-01T14:26:49.909Z,21.13
2019-05-01T14:29:19.273Z,21.45
2019-05-01T14:31:48.678Z,21.67
2019-05-01T14:34:18.020Z,21.74
2019-05-01T14:36:47.374Z,21.55
2019-05-01T14:39:16.807Z,21.68
2019-05-01T14:41:46.139Z,21.51
2019-05-01T14:44:15.526Z,21.38
2019-05-01T14:46:44.868Z,21.30
2019-05-01T14:49:14.313Z,21.51
2019-05-01T14:51:43.691Z,21.71
2019-05-01T14:54:13.101Z,21.88
2019-05-01T14:56:43.420Z,22.09
2019-05-01T14:59:13.021Z,22.44
2019-05-01T15:01:42.444Z,23.49
2019-05-01T15:04:11.887Z,23.40
2019-05-01T15:06:41.363Z,23.04
2019-05-01T15:09:10.991Z,24.11
2019-05-01T15:11:41.718Z,24.57
2019-05-01T15:14:28.686Z,23.64
2019-05-01T15:17:17.438Z,23.58
2019-05-01T15:19:55.184Z,23.46
2019-05-01T15:22:24.822Z,24.15
2019-05-01T15:24:54.248Z,24.53
2019-05-01T15:27:24.080Z,23.93
2019-05-01T15:29:53.597Z,23.98
2019-05-01T15:32:23.197Z,23.62
2019-05-01T15:34:52.740Z,23.49
2019-05-01T15:37:22.298Z,23.33
2019-05-01T15:39:59.415Z,22.99
2019-05-01T15:42:42.663Z,23.07
2019-05-01T15:45:12.874Z,23.00
2019-05-01T15:47:42.385Z,23.52
2019-05-01T15:50:11.988Z,23.32
2019-05-01T15:52:41.477Z,23.35
2019-05-01T15:55:11.217Z,23.35
2019-05-01T15:57:40.686Z,23.42
2019-05-01T16:00:12.111Z,23.27
2019-05-01T16:02:41.525Z,23.27
2019-05-01T16:05:11.117Z,23.33
2019-05-01T16:07:42.231Z,23.08
2019-05-01T16:10:14.128Z,23.12
2019-05-01T16:13:02.492Z,23.10
2019-05-01T16:15:33.607Z,22.95
2019-05-01T16:18:03.683Z,22.89
2019-05-01T16:20:33.212Z,22.76
2019-05-01T16:23:02.740Z,23.08
2019-05-01T16:25:32.311Z,22.88
2019-05-01T16:28:01.840Z,22.93
2019-05-01T16:30:31.317Z,22.83
2019-05-01T16:33:00.829Z,22.72
2019-05-01T16:35:30.381Z,22.75
2019-05-01T16:38:02.011Z,22.75
2019-05-01T16:40:45.154Z,22.73
2019-05-01T16:43:15.052Z,22.62
2019-05-01T16:45:44.576Z,22.58
2019-05-01T16:48:14.032Z,22.57
2019-05-01T16:50:43.556Z,22.52
2019-05-01T16:53:13.135Z,22.36
2019-05-01T16:55:43.048Z,22.43
2019-05-01T16:58:15.022Z,22.40
2019-05-01T17:01:04.187Z,22.35
2019-05-01T17:03:44.229Z,22.31
2019-05-01T17:06:18.568Z,22.21
2019-05-01T17:09:00.388Z,22.20
2019-05-01T17:11:31.877Z,22.17
2019-05-01T17:14:01.454Z,22.08
2019-05-01T17:16:31.084Z,22.08
2019-05-01T17:19:00.579Z,22.09
2019-05-01T17:21:30.049Z,22.04
2019-05-01T17:23:59.651Z,22.05
2019-05-01T17:26:29.226Z,22.02
2019-05-01T17:28:58.687Z,21.98
2019-05-01T17:31:28.520Z,22.03
2019-05-01T17:33:58.037Z,21.94
2019-05-01T17:36:27.565Z,21.90
2019-05-01T17:38:57.022Z,21.85
2019-05-01T17:41:27.450Z,21.91
2019-05-01T17:43:57.808Z,21.90
2019-05-01T17:46:27.242Z,21.85
2019-05-01T17:48:56.758Z,21.86
2019-05-01T17:51:26.192Z,21.83
2019-05-01T17:53:55.714Z,21.80
2019-05-01T17:56:28.286Z,21.77
2019-05-01T17:58:59.285Z,21.73
2019-05-01T18:01:49.551Z,21.69
2019-05-01T18:04:33.318Z,21.65
2019-05-01T18:07:02.933Z,21.60
2019-05-01T18:09:32.444Z,21.52
2019-05-01T18:12:07.224Z,21.46
2019-05-01T18:14:36.724Z,21.41
2019-05-01T18:17:06.350Z,21.35
2019-05-01T18:19:35.833Z,21.29
2019-05-01T18:22:26.904Z,21.24
2019-05-01T18:25:14.021Z,21.16
2019-05-01T18:28:01.800Z,21.07
2019-05-01T18:30:36.174Z,20.98
2019-05-01T18:33:05.904Z,20.89
2019-05-01T18:35:35.618Z,20.81
2019-05-01T18:38:14.745Z,20.74
2019-05-01T18:40:49.761Z,20.68
2019-05-01T18:43:19.245Z,20.59
2019-05-01T18:45:50.917Z,20.52
2019-05-01T18:48:20.984Z,20.44
2019-05-01T18:50:54.671Z,20.38
2019-05-01T18:53:21.973Z,20.31
2019-05-01T18:55:51.534Z,20.23
2019-05-01T18:58:20.972Z,20.16
2019-05-01T19:00:50.907Z,20.08
2019-05-01T19:03:22.410Z,20.02
2019-05-01T19:05:51.748Z,19.95
2019-05-01T19:08:21.253Z,19.89
2019-05-01T19:10:50.778Z,19.82
2019-05-01T19:13:20.708Z,19.74
2019-05-01T19:15:50.317Z,19.66
2019-05-01T19:18:19.858Z,19.62
2019-05-01T19:20:59.269Z,19.56
2019-05-01T19:23:22.113Z,19.52
2019-05-01T19:25:51.931Z,19.44
2019-05-01T19:28:22.559Z,19.39
2019-05-01T19:30:52.107Z,19.35
2019-05-01T19:33:21.635Z,19.29
2019-05-01T19:35:51.155Z,19.25
2019-05-01T19:38:21.493Z,19.21
2019-05-01T19:40:50.948Z,19.17
2019-05-01T19:43:20.518Z,19.12
2019-05-01T19:45:49.968Z,19.07
2019-05-01T19:48:19.518Z,19.03
2019-05-01T19:50:49.640Z,18.99
2019-05-01T19:53:19.208Z,18.95
2019-05-01T19:55:48.989Z,18.89
2019-05-01T19:58:18.511Z,18.86
2019-05-01T20:00:55.889Z,18.82
2019-05-01T20:03:26.016Z,18.75
2019-05-01T20:05:59.678Z,18.64
2019-05-01T20:08:28.430Z,18.52
2019-05-01T20:10:57.979Z,18.47
2019-05-01T20:13:27.522Z,18.44
2019-05-01T20:15:56.987Z,18.33
2019-05-01T20:18:26.535Z,18.31
2019-05-01T20:20:55.994Z,18.28
2019-05-01T20:23:31.574Z,18.24
2019-05-01T20:25:58.626Z,18.20
2019-05-01T20:28:28.465Z,18.15
2019-05-01T20:30:58.202Z,18.11
2019-05-01T20:33:27.747Z,18.09
2019-05-01T20:36:00.536Z,18.08
2019-05-01T20:38:28.654Z,18.02
2019-05-01T20:40:58.259Z,17.98
2019-05-01T20:43:27.739Z,17.91
2019-05-01T20:45:57.301Z,17.87
2019-05-01T20:48:26.798Z,17.85
2019-05-01T20:50:56.313Z,17.82
2019-05-01T20:53:26.967Z,17.81
2019-05-01T20:56:03.008Z,17.73
2019-05-01T20:58:38.451Z,17.73
2019-05-01T21:01:07.939Z,17.71
2019-05-01T21:03:42.674Z,17.66
2019-05-01T21:06:24.337Z,17.62
2019-05-01T21:09:13.853Z,17.56
2019-05-01T21:11:47.389Z,17.50
2019-05-01T21:14:22.629Z,17.42
2019-05-01T21:16:49.388Z,17.40
2019-05-01T21:19:18.847Z,17.41
2019-05-01T21:21:48.291Z,17.44
2019-05-01T21:24:17.823Z,17.36
2019-05-01T21:26:47.338Z,17.35
2019-05-01T21:29:16.820Z,17.22
2019-05-01T21:31:46.329Z,17.17
2019-05-01T21:34:15.815Z,17.17
2019-05-01T21:36:47.366Z,17.15
2019-05-01T21:39:17.958Z,17.11
2019-05-01T21:41:47.656Z,17.07
2019-05-01T21:44:17.218Z,17.06
2019-05-01T21:46:46.840Z,17.01
2019-05-01T21:49:16.402Z,16.97
2019-05-01T21:51:46.354Z,16.94
2019-05-01T21:54:22.193Z,16.91
2019-05-01T21:56:51.694Z,16.91
2019-05-01T21:59:21.100Z,16.88
2019-05-01T22:01:50.644Z,16.87
2019-05-01T22:04:20.084Z,16.84
2019-05-01T22:06:51.986Z,16.74
2019-05-01T22:09:21.599Z,16.72
2019-05-01T22:11:51.030Z,16.72
2019-05-01T22:14:38.400Z,16.69
2019-05-01T22:17:14.013Z,16.58
2019-05-01T22:19:43.370Z,16.49
2019-05-01T22:22:19.279Z,16.47
2019-05-01T22:24:59.618Z,16.43
2019-05-01T22:27:34.835Z,16.28
2019-05-01T22:30:13.794Z,16.25
2019-05-01T22:32:46.951Z,16.22
2019-05-01T22:35:18.935Z,16.14
2019-05-01T22:37:48.395Z,16.10
2019-05-01T22:40:20.833Z,16.00
2019-05-01T22:42:50.182Z,16.06
2019-05-01T22:45:22.258Z,16.09
2019-05-01T22:47:52.200Z,16.06
2019-05-01T22:50:21.737Z,16.02
2019-05-01T22:52:51.286Z,15.96
2019-05-01T22:55:25.223Z,15.91
2019-05-01T22:57:51.723Z,16.04
2019-05-01T23:00:33.517Z,16.06
2019-05-01T23:03:05.568Z,16.20
2019-05-01T23:05:35.435Z,16.00
2019-05-01T23:08:04.881Z,15.91
2019-05-01T23:10:34.589Z,15.80
2019-05-01T23:13:04.131Z,15.84
2019-05-01T23:15:33.918Z,15.76
2019-05-01T23:18:03.414Z,15.84
2019-05-01T23:20:34.720Z,15.81
2019-05-01T23:23:03.888Z,15.75
2019-05-01T23:25:36.559Z,15.67
2019-05-01T23:28:06.075Z,15.64
2019-05-01T23:30:35.558Z,15.54
2019-05-01T23:33:04.999Z,15.48
2019-05-01T23:35:34.433Z,15.48
2019-05-01T23:38:03.896Z,15.49
2019-05-01T23:40:33.322Z,15.46
2019-05-01T23:43:02.703Z,15.43
2019-05-01T23:45:32.030Z,15.30
2019-05-01T23:48:01.433Z,15.16
2019-05-01T23:50:30.870Z,15.28
2019-05-01T23:53:00.233Z,15.34
2019-05-01T23:55:29.577Z,15.37
2019-05-01T23:57:59.023Z,15.31
